Etusivu
METAR-TAF:

METAR-TAF

Lentoasemat :

Georgetown Municipal Airport

Georgetown, Texas, Yhdysvallat

Leveyspiiri: 30-41N, Pituuspiiri: 097-41W, korkeus merenpinnasta: 240 m

Tämänhetkinen sää

Tämä raportti tehtiin 54 minuuttia sitten, kello 23.56 UTC
Tuuli 8 kn kaakosta puuskistuen 17 kn:hen
Lämpötila 19°C
Kosteus 94%
Ilmanpaine 1015 hPa
Pilvistä 1100 ft:n korkeudessa
heikkoa sadetta, utua

METAR: KGTU 072356Z 14008G17KT -RA BR OVC011 19/18 A2997 RMK AO2 CIG 008V015 SLP146 P0000 60015 T01940183 10211 20194 53001 $

Aika: 18:50 (00:50 UTC)


TAF: puuttuu

Säähavainnot ja -ennusteet yli 4000 lentoasemalta (METAR- ja TAF-raportit).

Käytössä olevat sääasemat on merkitty karttaan keltaisilla ja punaisilla pisteillä.

Aseta hiiri pisteen päälle nähdäksesi sääaseman nimen.

Klikkaa sitten nähdäksesi säähavainnot ja -ennusteet.

Kartan vaihtaminen: klikkaa mustalla rastilla varustettuja vihreitä pisteitä, niin voit zoomata sisään; viivalla varustettua vihreää pistettä, niin voit zoomata ulos tai vihreitä nuolia, niin pääset viereisille kartoille.


METAR-TAF: